Pescara International Airport LIBP

Flugplatz Daten

Name: Pescara International Airport

Ident: LIBP

Lat: 42,43170166

Long: 14,18109989

Platzhöhe: 48 ft

IataCode: PSR

City: Pescara

Homepage: http://www.abruzzo-airport.it/eng/index.php

Metar

2022/08/13 17:50
LIBP 131750Z AUTO 08003KT 020V110 9999 NCD 24/16 Q1012

Taf

2022/08/13 18:00
TAF LIBP 131700Z 1318/1418 25007KT 9999 SCT040
BECMG 1408/1410 35010KT
BECMG 1413/1415 07008KT
Gewünschte Webcam nicht vorhanden? Dann fügen Sie eine hinzu. Sie wird dann so schnell wie möglich freigeschaltet
Url: Title: